sensor_id;sensor_type;location;lat;lon;timestamp;pressure;altitude;pressure_sealevel;temperature;humidity
21096;BME280;10706;49.036;12.112;2023-01-28T00:00:50;98208.78;;;-0.15;85.05
21096;BME280;10706;49.036;12.112;2023-01-28T00:03:16;98201.78;;;-0.32;85.46
21096;BME280;10706;49.036;12.112;2023-01-28T00:05:42;98212.06;;;-0.39;85.71
21096;BME280;10706;49.036;12.112;2023-01-28T00:08:08;98206.44;;;-0.26;84.93
21096;BME280;10706;49.036;12.112;2023-01-28T00:10:36;98204.66;;;-0.17;84.74
21096;BME280;10706;49.036;12.112;2023-01-28T00:13:05;98199.81;;;-0.30;85.37
21096;BME280;10706;49.036;12.112;2023-01-28T00:15:31;98204.88;;;-0.37;86.53
21096;BME280;10706;49.036;12.112;2023-01-28T00:17:57;98204.88;;;-0.37;85.81
21096;BME280;10706;49.036;12.112;2023-01-28T00:20:23;98213.84;;;-0.40;86.65
21096;BME280;10706;49.036;12.112;2023-01-28T00:22:49;98215.22;;;-0.35;86.83
21096;BME280;10706;49.036;12.112;2023-01-28T00:25:15;98206.97;;;-0.14;86.96
21096;BME280;10706;49.036;12.112;2023-01-28T00:27:41;98205.41;;;-0.33;87.45
21096;BME280;10706;49.036;12.112;2023-01-28T00:30:08;98208.84;;;-0.33;87.32
21096;BME280;10706;49.036;12.112;2023-01-28T00:32:34;98209.38;;;-0.21;87.09
21096;BME280;10706;49.036;12.112;2023-01-28T00:34:59;98213.13;;;-0.32;87.56
21096;BME280;10706;49.036;12.112;2023-01-28T00:37:25;98213.13;;;-0.32;87.35
21096;BME280;10706;49.036;12.112;2023-01-28T00:39:51;98217.88;;;-0.53;89.18
21096;BME280;10706;49.036;12.112;2023-01-28T00:42:16;98217.81;;;-0.62;88.97
21096;BME280;10706;49.036;12.112;2023-01-28T00:44:43;98217.97;;;-0.63;89.69
21096;BME280;10706;49.036;12.112;2023-01-28T00:47:09;98216.16;;;-0.63;89.98
21096;BME280;10706;49.036;12.112;2023-01-28T00:49:35;98215.38;;;-0.55;89.23
21096;BME280;10706;49.036;12.112;2023-01-28T00:52:00;98219.34;;;-0.51;89.28
21096;BME280;10706;49.036;12.112;2023-01-28T00:54:26;98218.09;;;-0.47;89.04
21096;BME280;10706;49.036;12.112;2023-01-28T00:56:52;98218.69;;;-0.27;87.59
21096;BME280;10706;49.036;12.112;2023-01-28T00:59:18;98215.66;;;-0.14;86.81
21096;BME280;10706;49.036;12.112;2023-01-28T01:01:44;98224.84;;;-0.18;86.53
21096;BME280;10706;49.036;12.112;2023-01-28T01:04:10;98230.47;;;-0.31;87.07
21096;BME280;10706;49.036;12.112;2023-01-28T01:06:38;98222.56;;;-0.39;87.44
21096;BME280;10706;49.036;12.112;2023-01-28T01:09:07;98223.81;;;-0.69;89.39
21096;BME280;10706;49.036;12.112;2023-01-28T01:11:35;98222.09;;;-0.79;89.97
21096;BME280;10706;49.036;12.112;2023-01-28T01:14:01;98223.34;;;-0.83;90.09
21096;BME280;10706;49.036;12.112;2023-01-28T01:16:30;98223.59;;;-0.76;91.02
21096;BME280;10706;49.036;12.112;2023-01-28T01:19:01;98221.63;;;-0.56;90.15
21096;BME280;10706;49.036;12.112;2023-01-28T01:21:28;98217.59;;;-0.68;90.17
21096;BME280;10706;49.036;12.112;2023-01-28T01:23:54;98226.66;;;-0.63;90.77
21096;BME280;10706;49.036;12.112;2023-01-28T01:26:20;98223.81;;;-0.69;90.50
21096;BME280;10706;49.036;12.112;2023-01-28T01:28:46;98235.13;;;-0.69;90.66
21096;BME280;10706;49.036;12.112;2023-01-28T01:31:16;98230.31;;;-0.73;90.83
21096;BME280;10706;49.036;12.112;2023-01-28T01:33:45;98233.47;;;-0.70;90.68
21096;BME280;10706;49.036;12.112;2023-01-28T01:36:12;98235.03;;;-0.77;91.21
21096;BME280;10706;49.036;12.112;2023-01-28T01:38:38;98231.81;;;-0.89;90.87
21096;BME280;10706;49.036;12.112;2023-01-28T01:41:07;98234.66;;;-0.64;89.79
21096;BME280;10706;49.036;12.112;2023-01-28T01:43:52;98235.13;;;-0.69;89.48
21096;BME280;10706;49.036;12.112;2023-01-28T01:46:43;98231.38;;;-0.66;89.96
21096;BME280;10706;49.036;12.112;2023-01-28T01:51:43;98238.72;;;-0.70;89.88
21096;BME280;10706;49.036;12.112;2023-01-28T01:54:11;98236.09;;;-0.70;89.59
21096;BME280;10706;49.036;12.112;2023-01-28T01:56:42;98230.94;;;-0.80;90.20
21096;BME280;10706;49.036;12.112;2023-01-28T01:59:13;98232.81;;;-0.90;90.18
21096;BME280;10706;49.036;12.112;2023-01-28T02:01:41;98239.84;;;-0.90;90.32
21096;BME280;10706;49.036;12.112;2023-01-28T02:04:26;98232.16;;;-0.92;90.21
21096;BME280;10706;49.036;12.112;2023-01-28T02:06:54;98245.53;;;-0.77;89.84
21096;BME280;10706;49.036;12.112;2023-01-28T02:11:55;98235.44;;;-0.90;90.33
21096;BME280;10706;49.036;12.112;2023-01-28T02:14:27;98240.00;;;-0.92;90.39
21096;BME280;10706;49.036;12.112;2023-01-28T02:16:54;98240.00;;;-0.92;90.38
21096;BME280;10706;49.036;12.112;2023-01-28T02:19:21;98239.84;;;-0.90;91.50
21096;BME280;10706;49.036;12.112;2023-01-28T02:30:39;98237.59;;;-0.85;91.44
21096;BME280;10706;49.036;12.112;2023-01-28T02:33:21;98241.50;;;-0.89;91.37
21096;BME280;10706;49.036;12.112;2023-01-28T02:35:53;98248.00;;;-0.93;91.44
21096;BME280;10706;49.036;12.112;2023-01-28T02:38:30;98255.94;;;-0.85;91.50
21096;BME280;10706;49.036;12.112;2023-01-28T02:41:13;98265.63;;;-0.86;91.57
21096;BME280;10706;49.036;12.112;2023-01-28T02:43:45;98270.09;;;-0.78;91.26
21096;BME280;10706;49.036;12.112;2023-01-28T02:49:42;98272.75;;;-0.60;90.22
21096;BME280;10706;49.036;12.112;2023-01-28T02:56:24;98274.81;;;-0.82;91.58
21096;BME280;10706;49.036;12.112;2023-01-28T02:59:21;98268.97;;;-0.75;92.72
21096;BME280;10706;49.036;12.112;2023-01-28T03:05:22;98264.56;;;-0.93;94.00
21096;BME280;10706;49.036;12.112;2023-01-28T03:07:51;98256.16;;;-1.14;95.25
21096;BME280;10706;49.036;12.112;2023-01-28T03:10:21;98261.47;;;-1.06;95.63
21096;BME280;10706;49.036;12.112;2023-01-28T03:12:52;98272.16;;;-1.18;96.20
21096;BME280;10706;49.036;12.112;2023-01-28T03:15:41;98270.16;;;-1.06;96.86
21096;BME280;10706;49.036;12.112;2023-01-28T03:21:25;98258.94;;;-1.16;97.13
21096;BME280;10706;49.036;12.112;2023-01-28T03:24:43;98259.88;;;-1.17;97.68
21096;BME280;10706;49.036;12.112;2023-01-28T03:27:43;98260.81;;;-1.08;97.26
21096;BME280;10706;49.036;12.112;2023-01-28T03:30:50;98263.50;;;-1.18;97.13
21096;BME280;10706;49.036;12.112;2023-01-28T03:33:39;98267.34;;;-1.22;97.53
21096;BME280;10706;49.036;12.112;2023-01-28T03:36:25;98262.28;;;-1.24;97.48
21096;BME280;10706;49.036;12.112;2023-01-28T03:39:09;98274.25;;;-1.21;98.21
21096;BME280;10706;49.036;12.112;2023-01-28T03:41:35;98264.59;;;-1.21;97.45
21096;BME280;10706;49.036;12.112;2023-01-28T03:44:01;98274.66;;;-1.16;97.71
21096;BME280;10706;49.036;12.112;2023-01-28T03:46:45;98278.78;;;-0.95;96.54
21096;BME280;10706;49.036;12.112;2023-01-28T03:49:15;98276.84;;;-0.93;97.28
21096;BME280;10706;49.036;12.112;2023-01-28T03:51:40;98274.38;;;-0.95;95.76
21096;BME280;10706;49.036;12.112;2023-01-28T03:54:06;98277.00;;;-0.95;96.21
21096;BME280;10706;49.036;12.112;2023-01-28T03:56:33;98284.19;;;-0.97;96.79
21096;BME280;10706;49.036;12.112;2023-01-28T03:59:03;98283.78;;;-1.20;97.28
21096;BME280;10706;49.036;12.112;2023-01-28T04:01:28;98281.38;;;-1.13;97.59
21096;BME280;10706;49.036;12.112;2023-01-28T04:03:54;98271.91;;;-1.24;97.39
21096;BME280;10706;49.036;12.112;2023-01-28T04:06:20;98278.44;;;-1.28;97.57
21096;BME280;10706;49.036;12.112;2023-01-28T04:08:45;98277.50;;;-1.37;98.45
21096;BME280;10706;49.036;12.112;2023-01-28T04:11:19;98275.59;;;-1.45;98.15
21096;BME280;10706;49.036;12.112;2023-01-28T04:13:47;98275.38;;;-1.51;98.14
21096;BME280;10706;49.036;12.112;2023-01-28T04:16:16;98281.03;;;-1.56;98.54
21096;BME280;10706;49.036;12.112;2023-01-28T04:18:43;98282.16;;;-1.59;99.33
21096;BME280;10706;49.036;12.112;2023-01-28T04:21:10;98287.78;;;-1.53;99.01
21096;BME280;10706;49.036;12.112;2023-01-28T04:23:36;98289.72;;;-1.55;98.98
21096;BME280;10706;49.036;12.112;2023-01-28T04:26:01;98282.44;;;-1.62;99.16
21096;BME280;10706;49.036;12.112;2023-01-28T04:28:29;98289.91;;;-1.67;99.54
21096;BME280;10706;49.036;12.112;2023-01-28T04:30:55;98289.25;;;-1.69;99.83
21096;BME280;10706;49.036;12.112;2023-01-28T04:33:21;98286.63;;;-1.69;100.00
21096;BME280;10706;49.036;12.112;2023-01-28T04:35:47;98295.16;;;-1.67;99.78
21096;BME280;10706;49.036;12.112;2023-01-28T04:38:12;98297.28;;;-1.52;99.85
21096;BME280;10706;49.036;12.112;2023-01-28T04:40:38;98305.06;;;-1.33;99.57
21096;BME280;10706;49.036;12.112;2023-01-28T04:43:04;98303.94;;;-1.30;98.52
21096;BME280;10706;49.036;12.112;2023-01-28T04:45:29;98308.75;;;-1.26;97.31
21096;BME280;10706;49.036;12.112;2023-01-28T04:47:55;98311.59;;;-1.19;97.77
21096;BME280;10706;49.036;12.112;2023-01-28T04:50:21;98315.22;;;-1.02;96.30
21096;BME280;10706;49.036;12.112;2023-01-28T04:52:47;98314.69;;;-1.06;97.12
21096;BME280;10706;49.036;12.112;2023-01-28T04:55:12;98329.00;;;-1.00;95.99
21096;BME280;10706;49.036;12.112;2023-01-28T04:57:38;98315.69;;;-1.07;96.39
21096;BME280;10706;49.036;12.112;2023-01-28T05:00:05;98324.31;;;-0.96;96.29
21096;BME280;10706;49.036;12.112;2023-01-28T05:02:31;98319.66;;;-0.85;95.89
21096;BME280;10706;49.036;12.112;2023-01-28T05:04:56;98321.88;;;-0.80;95.46
21096;BME280;10706;49.036;12.112;2023-01-28T05:07:22;98313.69;;;-0.77;95.40
21096;BME280;10706;49.036;12.112;2023-01-28T05:09:48;98314.59;;;-0.68;95.05
21096;BME280;10706;49.036;12.112;2023-01-28T05:12:14;98317.00;;;-0.75;94.15
21096;BME280;10706;49.036;12.112;2023-01-28T05:14:39;98314.06;;;-0.90;95.16
21096;BME280;10706;49.036;12.112;2023-01-28T05:17:05;98322.41;;;-0.76;95.18
21096;BME280;10706;49.036;12.112;2023-01-28T05:19:31;98322.00;;;-0.82;95.27
21096;BME280;10706;49.036;12.112;2023-01-28T05:21:56;98314.69;;;-0.60;94.27
21096;BME280;10706;49.036;12.112;2023-01-28T05:24:22;98325.63;;;-0.65;94.60
21096;BME280;10706;49.036;12.112;2023-01-28T05:26:48;98316.41;;;-0.69;94.73
21096;BME280;10706;49.036;12.112;2023-01-28T05:29:14;98317.28;;;-0.78;95.23
21096;BME280;10706;49.036;12.112;2023-01-28T05:31:39;98322.59;;;-0.70;95.25
21096;BME280;10706;49.036;12.112;2023-01-28T05:34:05;98319.47;;;-0.55;94.12
21096;BME280;10706;49.036;12.112;2023-01-28T05:36:31;98320.81;;;-0.51;93.35
21096;BME280;10706;49.036;12.112;2023-01-28T05:38:56;98316.38;;;-0.51;93.48
21096;BME280;10706;49.036;12.112;2023-01-28T05:41:22;98327.34;;;-0.55;93.48
21096;BME280;10706;49.036;12.112;2023-01-28T05:43:48;98310.19;;;-0.50;93.80
21096;BME280;10706;49.036;12.112;2023-01-28T05:46:13;98319.31;;;-0.36;91.97
21096;BME280;10706;49.036;12.112;2023-01-28T05:48:39;98318.50;;;-0.36;92.08
21096;BME280;10706;49.036;12.112;2023-01-28T05:51:05;98323.16;;;-0.48;93.20
21096;BME280;10706;49.036;12.112;2023-01-28T05:53:31;98325.00;;;-0.59;93.20
21096;BME280;10706;49.036;12.112;2023-01-28T05:55:57;98318.75;;;-0.66;93.69
21096;BME280;10706;49.036;12.112;2023-01-28T05:58:22;98324.38;;;-0.88;94.18
21096;BME280;10706;49.036;12.112;2023-01-28T06:00:48;98326.66;;;-0.93;94.48
21096;BME280;10706;49.036;12.112;2023-01-28T06:03:14;98327.38;;;-1.01;94.83
21096;BME280;10706;49.036;12.112;2023-01-28T06:05:39;98323.38;;;-1.05;96.12
21096;BME280;10706;49.036;12.112;2023-01-28T06:08:05;98334.44;;;-1.11;95.82
21096;BME280;10706;49.036;12.112;2023-01-28T06:10:31;98330.19;;;-1.12;96.23
21096;BME280;10706;49.036;12.112;2023-01-28T06:12:57;98329.00;;;-1.18;96.12
21096;BME280;10706;49.036;12.112;2023-01-28T06:15:24;98334.50;;;-1.21;96.55
21096;BME280;10706;49.036;12.112;2023-01-28T06:17:50;98341.00;;;-1.25;96.99
21096;BME280;10706;49.036;12.112;2023-01-28T06:20:16;98344.84;;;-1.20;97.20
21096;BME280;10706;49.036;12.112;2023-01-28T06:22:42;98345.53;;;-1.18;96.99
21096;BME280;10706;49.036;12.112;2023-01-28T06:25:08;98347.94;;;-1.06;96.96
21096;BME280;10706;49.036;12.112;2023-01-28T06:27:34;98355.81;;;-1.06;96.12
21096;BME280;10706;49.036;12.112;2023-01-28T06:30:00;98357.31;;;-1.04;96.46
21096;BME280;10706;49.036;12.112;2023-01-28T06:32:26;98359.66;;;-1.01;95.95
21096;BME280;10706;49.036;12.112;2023-01-28T06:34:52;98365.16;;;-1.04;95.56
21096;BME280;10706;49.036;12.112;2023-01-28T06:37:18;98365.44;;;-0.97;95.73
21096;BME280;10706;49.036;12.112;2023-01-28T06:39:44;98368.94;;;-0.88;96.07
21096;BME280;10706;49.036;12.112;2023-01-28T06:42:10;98371.81;;;-0.82;96.44
21096;BME280;10706;49.036;12.112;2023-01-28T06:44:35;98377.06;;;-0.82;95.26
21096;BME280;10706;49.036;12.112;2023-01-28T06:47:01;98381.63;;;-0.84;95.02
21096;BME280;10706;49.036;12.112;2023-01-28T06:49:27;98378.19;;;-0.84;94.84
21096;BME280;10706;49.036;12.112;2023-01-28T06:51:52;98389.88;;;-0.79;94.27
21096;BME280;10706;49.036;12.112;2023-01-28T06:54:18;98383.56;;;-0.86;94.74
21096;BME280;10706;49.036;12.112;2023-01-28T06:56:44;98393.38;;;-0.88;94.66
21096;BME280;10706;49.036;12.112;2023-01-28T06:59:10;98386.75;;;-0.64;93.36
21096;BME280;10706;49.036;12.112;2023-01-28T07:01:35;98382.09;;;-0.70;93.26
21096;BME280;10706;49.036;12.112;2023-01-28T07:04:01;98392.50;;;-0.79;94.43
21096;BME280;10706;49.036;12.112;2023-01-28T07:06:27;98398.03;;;-0.82;94.23
21096;BME280;10706;49.036;12.112;2023-01-28T07:08:53;98402.69;;;-0.75;94.19
21096;BME280;10706;49.036;12.112;2023-01-28T07:11:18;98404.94;;;-0.81;93.73
21096;BME280;10706;49.036;12.112;2023-01-28T07:13:44;98407.16;;;-0.86;93.72
21096;BME280;10706;49.036;12.112;2023-01-28T07:16:11;98407.78;;;-0.74;94.17
21096;BME280;10706;49.036;12.112;2023-01-28T07:18:36;98409.19;;;-0.80;93.61
21096;BME280;10706;49.036;12.112;2023-01-28T07:21:02;98409.34;;;-0.81;94.12
21096;BME280;10706;49.036;12.112;2023-01-28T07:26:08;98415.91;;;-0.67;93.86
21096;BME280;10706;49.036;12.112;2023-01-28T07:28:34;98422.91;;;-0.68;93.37
21096;BME280;10706;49.036;12.112;2023-01-28T07:31:00;98416.19;;;-0.70;93.24
21096;BME280;10706;49.036;12.112;2023-01-28T07:33:26;98421.69;;;-0.64;93.30
21096;BME280;10706;49.036;12.112;2023-01-28T07:35:52;98421.50;;;-0.62;93.58
21096;BME280;10706;49.036;12.112;2023-01-28T07:38:17;98420.81;;;-0.54;93.47
21096;BME280;10706;49.036;12.112;2023-01-28T07:40:43;98414.72;;;-0.55;92.90
21096;BME280;10706;49.036;12.112;2023-01-28T07:43:10;98421.81;;;-0.65;93.21
21096;BME280;10706;49.036;12.112;2023-01-28T07:45:36;98416.19;;;-0.70;92.46
21096;BME280;10706;49.036;12.112;2023-01-28T07:48:05;98414.16;;;-0.76;93.69
21096;BME280;10706;49.036;12.112;2023-01-28T07:50:35;98425.41;;;-0.66;93.02
21096;BME280;10706;49.036;12.112;2023-01-28T07:53:04;98421.69;;;-0.64;93.27
21096;BME280;10706;49.036;12.112;2023-01-28T07:55:30;98431.13;;;-0.53;93.25
21096;BME280;10706;49.036;12.112;2023-01-28T07:57:58;98431.22;;;-0.45;92.92
21096;BME280;10706;49.036;12.112;2023-01-28T08:00:27;98431.38;;;-0.46;92.48
21096;BME280;10706;49.036;12.112;2023-01-28T08:03:12;98434.91;;;-0.37;92.43
21096;BME280;10706;49.036;12.112;2023-01-28T08:05:47;98440.97;;;-0.37;92.21
21096;BME280;10706;49.036;12.112;2023-01-28T08:08:14;98443.88;;;-0.40;91.81
21096;BME280;10706;49.036;12.112;2023-01-28T08:10:41;98444.72;;;-0.40;91.60
21096;BME280;10706;49.036;12.112;2023-01-28T08:13:08;98438.34;;;-0.37;91.82
21096;BME280;10706;49.036;12.112;2023-01-28T08:15:45;98446.69;;;-0.24;92.19
21096;BME280;10706;49.036;12.112;2023-01-28T08:18:15;98447.38;;;-0.22;92.18
21096;BME280;10706;49.036;12.112;2023-01-28T08:20:42;98448.63;;;-0.26;91.46
21096;BME280;10706;49.036;12.112;2023-01-28T08:25:40;98452.03;;;0.03;91.29
21096;BME280;10706;49.036;12.112;2023-01-28T08:28:08;98451.13;;;0.12;91.05
21096;BME280;10706;49.036;12.112;2023-01-28T08:30:35;98452.25;;;-0.09;90.91
21096;BME280;10706;49.036;12.112;2023-01-28T08:33:02;98457.88;;;-0.04;90.59
21096;BME280;10706;49.036;12.112;2023-01-28T08:35:29;98455.19;;;0.06;90.58
21096;BME280;10706;49.036;12.112;2023-01-28T08:37:55;98455.75;;;0.18;90.39
21096;BME280;10706;49.036;12.112;2023-01-28T08:40:23;98461.69;;;0.20;90.65
21096;BME280;10706;49.036;12.112;2023-01-28T08:42:51;98463.25;;;0.13;89.95
21096;BME280;10706;49.036;12.112;2023-01-28T08:45:19;98462.75;;;0.27;89.78
21096;BME280;10706;49.036;12.112;2023-01-28T08:47:54;98464.16;;;0.22;89.33
21096;BME280;10706;49.036;12.112;2023-01-28T08:50:22;98458.63;;;0.25;89.33
21096;BME280;10706;49.036;12.112;2023-01-28T08:52:58;98457.25;;;0.38;89.62
21096;BME280;10706;49.036;12.112;2023-01-28T08:55:25;98456.34;;;0.30;88.83
21096;BME280;10706;49.036;12.112;2023-01-28T08:57:52;98455.38;;;0.31;88.73
21096;BME280;10706;49.036;12.112;2023-01-28T09:00:18;98464.31;;;0.20;88.99
21096;BME280;10706;49.036;12.112;2023-01-28T09:02:45;98465.66;;;0.24;89.60
21096;BME280;10706;49.036;12.112;2023-01-28T09:05:11;98460.63;;;0.31;90.15
21096;BME280;10706;49.036;12.112;2023-01-28T09:07:37;98453.53;;;0.23;89.69
21096;BME280;10706;49.036;12.112;2023-01-28T09:10:04;98461.53;;;0.40;87.94
21096;BME280;10706;49.036;12.112;2023-01-28T09:12:31;98462.41;;;0.48;88.12
21096;BME280;10706;49.036;12.112;2023-01-28T09:14:57;98462.00;;;0.61;87.88
21096;BME280;10706;49.036;12.112;2023-01-28T09:17:23;98459.81;;;0.74;85.86
21096;BME280;10706;49.036;12.112;2023-01-28T09:19:49;98470.84;;;0.34;87.56
21096;BME280;10706;49.036;12.112;2023-01-28T09:22:15;98472.56;;;0.25;88.97
21096;BME280;10706;49.036;12.112;2023-01-28T09:24:41;98480.50;;;0.33;89.79
21096;BME280;10706;49.036;12.112;2023-01-28T09:27:07;98480.50;;;0.33;88.54
21096;BME280;10706;49.036;12.112;2023-01-28T09:29:36;98478.44;;;0.19;88.93
21096;BME280;10706;49.036;12.112;2023-01-28T09:32:03;98488.53;;;0.32;88.76
21096;BME280;10706;49.036;12.112;2023-01-28T09:34:29;98479.94;;;0.40;89.34
21096;BME280;10706;49.036;12.112;2023-01-28T09:36:54;98485.91;;;0.32;88.50
21096;BME280;10706;49.036;12.112;2023-01-28T09:39:20;98488.38;;;0.33;88.98
21096;BME280;10706;49.036;12.112;2023-01-28T09:45:14;98486.53;;;0.44;88.03
21096;BME280;10706;49.036;12.112;2023-01-28T09:47:50;98486.81;;;0.41;88.66
21096;BME280;10706;49.036;12.112;2023-01-28T09:50:42;98488.19;;;0.71;87.22
21096;BME280;10706;49.036;12.112;2023-01-28T09:53:15;98487.00;;;0.91;86.85
21096;BME280;10706;49.036;12.112;2023-01-28T09:58:17;98481.41;;;0.42;88.77
21096;BME280;10706;49.036;12.112;2023-01-28T10:01:01;98473.44;;;0.52;88.24
21096;BME280;10706;49.036;12.112;2023-01-28T10:12:31;98479.09;;;1.17;85.27
21096;BME280;10706;49.036;12.112;2023-01-28T10:18:00;98487.63;;;1.11;85.46
21096;BME280;10706;49.036;12.112;2023-01-28T10:20:32;98486.19;;;1.17;85.35
21096;BME280;10706;49.036;12.112;2023-01-28T10:24:05;98490.78;;;0.89;86.16
21096;BME280;10706;49.036;12.112;2023-01-28T10:26:37;98494.13;;;0.73;87.17
21096;BME280;10706;49.036;12.112;2023-01-28T10:29:28;98495.66;;;0.57;88.13
21096;BME280;10706;49.036;12.112;2023-01-28T10:34:28;98494.69;;;0.58;88.79
21096;BME280;10706;49.036;12.112;2023-01-28T10:36:54;98495.78;;;0.56;88.61
21096;BME280;10706;49.036;12.112;2023-01-28T10:39:23;98492.66;;;0.78;88.35
21096;BME280;10706;49.036;12.112;2023-01-28T10:41:49;98493.63;;;0.51;88.83
21096;BME280;10706;49.036;12.112;2023-01-28T10:44:25;98490.38;;;0.75;87.32
21096;BME280;10706;49.036;12.112;2023-01-28T10:46:53;98492.81;;;0.51;88.48
21096;BME280;10706;49.036;12.112;2023-01-28T10:49:28;98491.78;;;0.44;89.64
21096;BME280;10706;49.036;12.112;2023-01-28T10:51:54;98489.19;;;0.70;89.61
21096;BME280;10706;49.036;12.112;2023-01-28T10:54:29;98486.59;;;0.78;89.23
21096;BME280;10706;49.036;12.112;2023-01-28T10:57:03;98484.34;;;0.83;88.69
21096;BME280;10706;49.036;12.112;2023-01-28T10:59:33;98487.38;;;0.70;89.25
21096;BME280;10706;49.036;12.112;2023-01-28T11:04:47;98482.34;;;0.77;88.67
21096;BME280;10706;49.036;12.112;2023-01-28T11:07:19;98467.91;;;1.15;86.81
21096;BME280;10706;49.036;12.112;2023-01-28T11:09:50;98476.88;;;0.96;87.43
21096;BME280;10706;49.036;12.112;2023-01-28T11:12:25;98470.81;;;1.04;86.73
21096;BME280;10706;49.036;12.112;2023-01-28T11:15:04;98470.28;;;0.92;86.43
21096;BME280;10706;49.036;12.112;2023-01-28T11:17:36;98465.97;;;0.91;88.42
21096;BME280;10706;49.036;12.112;2023-01-28T11:20:18;98484.22;;;0.67;89.17
21096;BME280;10706;49.036;12.112;2023-01-28T11:22:45;98478.81;;;0.68;88.92
21096;BME280;10706;49.036;12.112;2023-01-28T11:25:27;98477.94;;;1.12;87.41
21096;BME280;10706;49.036;12.112;2023-01-28T11:27:54;98481.22;;;1.14;87.53
21096;BME280;10706;49.036;12.112;2023-01-28T11:30:31;98481.34;;;1.04;88.52
21096;BME280;10706;49.036;12.112;2023-01-28T11:36:14;98485.47;;;0.81;88.01
21096;BME280;10706;49.036;12.112;2023-01-28T11:41:31;98481.25;;;0.88;89.69
21096;BME280;10706;49.036;12.112;2023-01-28T11:43:59;98478.75;;;1.12;88.54
21096;BME280;10706;49.036;12.112;2023-01-28T11:49:48;98476.31;;;1.19;88.08
21096;BME280;10706;49.036;12.112;2023-01-28T11:55:18;98466.06;;;1.42;88.18
21096;BME280;10706;49.036;12.112;2023-01-28T12:01:21;98459.91;;;1.68;85.62
21096;BME280;10706;49.036;12.112;2023-01-28T12:04:38;98464.75;;;1.46;87.09
21096;BME280;10706;49.036;12.112;2023-01-28T12:13:06;98461.06;;;1.65;84.05
21096;BME280;10706;49.036;12.112;2023-01-28T12:27:59;98452.03;;;0.65;90.44
21096;BME280;10706;49.036;12.112;2023-01-28T12:31:10;98457.69;;;0.78;90.43
21096;BME280;10706;49.036;12.112;2023-01-28T12:45:40;98460.94;;;1.41;88.86
21096;BME280;10706;49.036;12.112;2023-01-28T12:48:48;98449.81;;;1.12;88.83
21096;BME280;10706;49.036;12.112;2023-01-28T12:51:34;98450.34;;;0.90;90.51
21096;BME280;10706;49.036;12.112;2023-01-28T12:54:19;98457.69;;;0.78;90.64
21096;BME280;10706;49.036;12.112;2023-01-28T12:56:52;98452.47;;;0.60;91.31
21096;BME280;10706;49.036;12.112;2023-01-28T12:59:38;98450.84;;;0.59;92.36
21096;BME280;10706;49.036;12.112;2023-01-28T13:05:13;98458.31;;;0.98;89.31
21096;BME280;10706;49.036;12.112;2023-01-28T13:08:02;98454.50;;;0.92;88.95
21096;BME280;10706;49.036;12.112;2023-01-28T13:10:46;98459.94;;;0.73;90.82
21096;BME280;10706;49.036;12.112;2023-01-28T13:13:24;98461.75;;;0.72;89.51
21096;BME280;10706;49.036;12.112;2023-01-28T13:15:51;98461.19;;;0.87;89.31
21096;BME280;10706;49.036;12.112;2023-01-28T13:21:11;98467.53;;;1.02;88.37
21096;BME280;10706;49.036;12.112;2023-01-28T13:23:40;98466.13;;;0.90;88.35
21096;BME280;10706;49.036;12.112;2023-01-28T13:28:42;98456.53;;;0.81;88.81
21096;BME280;10706;49.036;12.112;2023-01-28T13:31:11;98463.06;;;0.94;88.75
21096;BME280;10706;49.036;12.112;2023-01-28T13:36:43;98463.84;;;0.87;88.00
21096;BME280;10706;49.036;12.112;2023-01-28T13:41:52;98473.75;;;0.75;86.42
21096;BME280;10706;49.036;12.112;2023-01-28T13:44:38;98475.19;;;0.69;85.86
21096;BME280;10706;49.036;12.112;2023-01-28T13:49:43;98476.88;;;0.52;86.38
21096;BME280;10706;49.036;12.112;2023-01-28T13:54:43;98486.84;;;0.67;85.01
21096;BME280;10706;49.036;12.112;2023-01-28T14:07:06;98498.81;;;0.61;84.04
21096;BME280;10706;49.036;12.112;2023-01-28T14:15:12;98506.25;;;0.30;86.66
21096;BME280;10706;49.036;12.112;2023-01-28T14:18:26;98506.97;;;0.58;84.47
21096;BME280;10706;49.036;12.112;2023-01-28T14:20:55;98508.34;;;0.62;83.17
21096;BME280;10706;49.036;12.112;2023-01-28T14:23:24;98503.63;;;0.48;83.37
21096;BME280;10706;49.036;12.112;2023-01-28T14:26:22;98508.16;;;0.64;82.89
21096;BME280;10706;49.036;12.112;2023-01-28T14:31:36;98509.25;;;0.35;84.57
21096;BME280;10706;49.036;12.112;2023-01-28T14:34:18;98507.91;;;0.31;85.44
21096;BME280;10706;49.036;12.112;2023-01-28T14:36:45;98509.53;;;0.32;84.78
21096;BME280;10706;49.036;12.112;2023-01-28T14:39:19;98510.41;;;0.32;85.48
21096;BME280;10706;49.036;12.112;2023-01-28T14:41:49;98513.84;;;0.33;85.82
21096;BME280;10706;49.036;12.112;2023-01-28T14:44:42;98519.09;;;0.51;84.73
21096;BME280;10706;49.036;12.112;2023-01-28T14:47:42;98520.97;;;0.41;85.04
21096;BME280;10706;49.036;12.112;2023-01-28T14:50:35;98516.53;;;0.41;84.12
21096;BME280;10706;49.036;12.112;2023-01-28T14:53:43;98525.41;;;0.40;85.72
21096;BME280;10706;49.036;12.112;2023-01-28T14:59:46;98527.25;;;0.66;83.87
21096;BME280;10706;49.036;12.112;2023-01-28T15:02:21;98531.38;;;0.68;82.32
21096;BME280;10706;49.036;12.112;2023-01-28T15:04:49;98523.19;;;0.71;81.96
21096;BME280;10706;49.036;12.112;2023-01-28T15:07:21;98526.41;;;0.65;82.87
21096;BME280;10706;49.036;12.112;2023-01-28T15:10:10;98524.94;;;0.63;83.71
21096;BME280;10706;49.036;12.112;2023-01-28T15:12:40;98531.69;;;0.65;83.00
21096;BME280;10706;49.036;12.112;2023-01-28T15:15:47;98540.84;;;0.61;83.12
21096;BME280;10706;49.036;12.112;2023-01-28T15:18:28;98546.84;;;0.71;83.08
21096;BME280;10706;49.036;12.112;2023-01-28T15:20:55;98553.59;;;0.56;83.00
21096;BME280;10706;49.036;12.112;2023-01-28T15:25:52;98545.47;;;0.67;83.48
21096;BME280;10706;49.036;12.112;2023-01-28T15:28:30;98548.25;;;0.84;82.01
21096;BME280;10706;49.036;12.112;2023-01-28T15:30:57;98549.53;;;0.80;83.10
21096;BME280;10706;49.036;12.112;2023-01-28T15:33:26;98563.13;;;0.75;82.28
21096;BME280;10706;49.036;12.112;2023-01-28T15:35:55;98559.69;;;0.74;82.16
21096;BME280;10706;49.036;12.112;2023-01-28T15:38:22;98552.69;;;0.65;81.19
21096;BME280;10706;49.036;12.112;2023-01-28T15:40:59;98560.25;;;0.86;86.97